createdAt,value
2022-11-23T00:00:38.752Z,4.82
2022-11-23T00:03:05.959Z,3.67
2022-11-23T00:05:34.914Z,4.60
2022-11-23T00:08:02.230Z,7.85
2022-11-23T00:10:29.264Z,4.35
2022-11-23T00:12:56.367Z,4.95
2022-11-23T00:15:23.465Z,4.22
2022-11-23T00:17:50.591Z,3.88
2022-11-23T00:20:17.750Z,3.85
2022-11-23T00:22:44.894Z,3.97
2022-11-23T00:25:11.981Z,6.65
2022-11-23T00:27:39.066Z,2.97
2022-11-23T00:30:06.568Z,3.25
2022-11-23T00:32:33.683Z,2.47
2022-11-23T00:35:00.741Z,3.15
2022-11-23T00:37:27.936Z,4.05
2022-11-23T00:39:55.167Z,3.70
2022-11-23T00:42:22.280Z,3.33
2022-11-23T00:44:49.478Z,2.35
2022-11-23T00:47:16.627Z,2.63
2022-11-23T00:49:43.681Z,3.63
2022-11-23T00:52:10.805Z,2.50
2022-11-23T00:54:38.006Z,3.17
2022-11-23T00:57:05.220Z,2.42
2022-11-23T00:59:32.566Z,2.20
2022-11-23T01:02:00.773Z,2.47
2022-11-23T01:04:29.243Z,1.85
2022-11-23T01:06:59.557Z,2.05
2022-11-23T01:09:27.001Z,3.45
2022-11-23T01:11:54.822Z,1.65
2022-11-23T01:14:24.462Z,1.55
2022-11-23T01:16:51.688Z,1.90
2022-11-23T01:19:20.711Z,1.02
2022-11-23T01:21:49.661Z,1.52
2022-11-23T01:24:20.103Z,2.50
2022-11-23T01:26:52.657Z,0.90
2022-11-23T01:29:21.168Z,1.17
2022-11-23T01:31:48.227Z,1.50
2022-11-23T01:34:16.390Z,0.88
2022-11-23T01:36:44.160Z,0.70
2022-11-23T01:39:12.713Z,1.15
2022-11-23T01:41:42.236Z,1.25
2022-11-23T01:44:30.846Z,0.82
2022-11-23T01:47:01.083Z,1.00
2022-11-23T01:49:35.630Z,0.88
2022-11-23T01:52:10.033Z,0.50
2022-11-23T01:54:42.547Z,0.93
2022-11-23T01:57:17.754Z,0.65
2022-11-23T01:59:46.389Z,0.70
2022-11-23T02:02:15.179Z,0.35
2022-11-23T02:04:46.051Z,0.57
2022-11-23T02:07:16.771Z,0.80
2022-11-23T02:09:46.787Z,0.85
2022-11-23T02:12:14.996Z,1.95
2022-11-23T02:14:44.237Z,0.40
2022-11-23T02:17:11.473Z,1.00
2022-11-23T02:19:58.371Z,0.52
2022-11-23T02:22:37.952Z,0.50
2022-11-23T02:25:12.415Z,0.77
2022-11-23T02:27:46.632Z,1.27
2022-11-23T02:32:42.528Z,1.00
2022-11-23T02:35:11.607Z,0.88
2022-11-23T02:37:40.059Z,0.98
2022-11-23T02:40:35.303Z,0.60
2022-11-23T02:43:03.262Z,1.73
2022-11-23T02:45:46.925Z,2.28
2022-11-23T02:48:14.119Z,2.28
2022-11-23T02:50:41.505Z,0.95
2022-11-23T02:53:08.863Z,0.82
2022-11-23T02:55:36.316Z,0.77
2022-11-23T02:58:05.424Z,0.70
2022-11-23T03:00:33.528Z,1.00
2022-11-23T03:03:02.222Z,0.75
2022-11-23T03:05:29.451Z,1.33
2022-11-23T03:07:56.628Z,1.00
2022-11-23T03:10:23.772Z,1.05
2022-11-23T03:12:56.511Z,1.25
2022-11-23T03:15:25.133Z,1.00
2022-11-23T03:17:52.947Z,2.35
2022-11-23T03:20:21.087Z,0.60
2022-11-23T03:22:50.661Z,1.17
2022-11-23T03:25:19.677Z,1.00
2022-11-23T03:27:50.212Z,1.30
2022-11-23T03:30:18.803Z,2.20
2022-11-23T03:32:46.032Z,1.27
2022-11-23T03:35:13.239Z,0.68
2022-11-23T03:37:59.957Z,2.55
2022-11-23T03:40:27.968Z,2.13
2022-11-23T03:43:08.666Z,0.82
2022-11-23T03:45:35.920Z,0.90
2022-11-23T03:48:02.977Z,1.20
2022-11-23T03:50:31.391Z,0.98
2022-11-23T03:52:59.819Z,0.95
2022-11-23T03:55:28.199Z,1.08
2022-11-23T03:57:59.658Z,1.05
2022-11-23T04:00:31.072Z,1.57
2022-11-23T04:02:58.800Z,1.00
2022-11-23T04:05:46.095Z,1.40
2022-11-23T04:08:33.057Z,1.27
2022-11-23T04:11:00.719Z,1.63
2022-11-23T04:13:37.665Z,2.88
2022-11-23T04:16:07.361Z,3.38
2022-11-23T04:18:34.822Z,4.20
2022-11-23T04:21:02.037Z,2.60
2022-11-23T04:23:29.112Z,2.53
2022-11-23T04:25:56.654Z,1.90
2022-11-23T04:28:24.773Z,2.53
2022-11-23T04:30:53.248Z,1.77
2022-11-23T04:33:20.308Z,2.53
2022-11-23T04:35:47.444Z,2.42
2022-11-23T04:38:15.538Z,4.00
2022-11-23T04:40:43.205Z,4.45
2022-11-23T04:43:11.369Z,3.83
2022-11-23T04:45:40.791Z,6.55
2022-11-23T04:48:14.548Z,10.82
2022-11-23T04:50:46.489Z,7.30
2022-11-23T04:53:17.855Z,9.75
2022-11-23T04:55:47.596Z,8.45
2022-11-23T04:58:16.231Z,7.15
2022-11-23T05:00:43.392Z,6.70
2022-11-23T05:03:12.298Z,27.27
2022-11-23T05:05:42.163Z,9.10
2022-11-23T05:08:10.229Z,8.80
2022-11-23T05:10:57.924Z,6.57
2022-11-23T05:13:28.221Z,5.68
2022-11-23T05:15:57.549Z,6.07
2022-11-23T05:18:28.270Z,7.38
2022-11-23T05:20:55.393Z,8.82
2022-11-23T05:23:22.743Z,8.73
2022-11-23T05:25:52.551Z,10.70
2022-11-23T05:28:39.630Z,13.60
2022-11-23T05:31:09.933Z,10.85
2022-11-23T05:33:37.933Z,13.27
2022-11-23T05:36:07.248Z,13.77
2022-11-23T05:38:38.525Z,10.15
2022-11-23T05:41:12.091Z,10.35
2022-11-23T05:43:42.770Z,15.88
2022-11-23T05:46:15.910Z,14.77
2022-11-23T05:48:43.390Z,21.88
2022-11-23T05:51:11.699Z,15.75
2022-11-23T05:53:44.866Z,14.25
2022-11-23T05:56:23.529Z,15.95
2022-11-23T05:59:05.493Z,17.45
2022-11-23T06:01:35.778Z,14.32
2022-11-23T06:04:06.950Z,11.95
2022-11-23T06:06:40.182Z,9.50
2022-11-23T06:09:07.484Z,9.23
2022-11-23T06:11:37.027Z,9.27
2022-11-23T06:14:14.157Z,12.10
2022-11-23T06:16:43.854Z,11.93
2022-11-23T06:19:20.677Z,10.82
2022-11-23T06:21:50.507Z,11.60
2022-11-23T06:24:20.456Z,15.63
2022-11-23T06:26:58.365Z,14.68
2022-11-23T06:29:26.354Z,12.23
2022-11-23T06:31:54.507Z,10.85
2022-11-23T06:34:21.743Z,11.48
2022-11-23T06:36:49.307Z,12.18
2022-11-23T06:39:16.807Z,12.93
2022-11-23T06:41:44.103Z,13.15
2022-11-23T06:44:12.713Z,16.58
2022-11-23T06:46:43.130Z,15.75
2022-11-23T06:49:10.403Z,19.27
2022-11-23T06:51:38.195Z,15.20
2022-11-23T06:54:05.464Z,19.40
2022-11-23T06:56:32.766Z,16.20
2022-11-23T06:59:00.549Z,15.85
2022-11-23T07:01:28.064Z,18.83
2022-11-23T07:04:01.038Z,17.40
2022-11-23T07:06:33.229Z,13.80
2022-11-23T07:09:05.658Z,14.23
2022-11-23T07:11:44.724Z,15.77
2022-11-23T07:14:12.552Z,18.13
2022-11-23T07:16:43.440Z,17.15
2022-11-23T07:19:11.136Z,17.02
2022-11-23T07:21:38.234Z,13.45
2022-11-23T07:24:06.019Z,14.82
2022-11-23T07:26:33.271Z,14.10
2022-11-23T07:29:01.107Z,13.98
2022-11-23T07:31:28.443Z,17.42
2022-11-23T07:33:55.611Z,16.42
2022-11-23T07:36:22.995Z,15.80
2022-11-23T07:38:50.782Z,16.70
2022-11-23T07:41:20.315Z,17.85
2022-11-23T07:44:07.473Z,16.42
2022-11-23T07:46:34.641Z,14.95
2022-11-23T07:49:02.537Z,14.95
2022-11-23T07:51:30.298Z,12.73
2022-11-23T07:53:57.685Z,14.00
2022-11-23T07:56:24.990Z,10.80
2022-11-23T07:58:52.176Z,13.15
2022-11-23T08:01:20.253Z,15.73
2022-11-23T08:03:48.550Z,15.38
2022-11-23T08:06:16.888Z,12.95
2022-11-23T08:08:44.402Z,13.18
2022-11-23T08:11:14.826Z,11.25
2022-11-23T08:13:42.025Z,9.45
2022-11-23T08:16:09.279Z,10.27
2022-11-23T08:18:36.731Z,12.05
2022-11-23T08:21:03.987Z,10.60
2022-11-23T08:23:31.235Z,8.73
2022-11-23T08:25:58.476Z,10.18
2022-11-23T08:28:25.472Z,8.88
2022-11-23T08:30:52.530Z,11.23
2022-11-23T08:33:19.654Z,9.35
2022-11-23T08:35:46.788Z,12.85
2022-11-23T08:38:14.051Z,9.43
2022-11-23T08:40:41.280Z,14.57
2022-11-23T08:43:08.552Z,10.00
2022-11-23T08:45:35.811Z,9.20
2022-11-23T08:48:04.290Z,21.25
2022-11-23T08:50:32.435Z,9.13
2022-11-23T08:53:00.292Z,10.15
2022-11-23T08:55:28.858Z,9.20
2022-11-23T08:57:58.845Z,11.38
2022-11-23T09:00:27.572Z,11.27
2022-11-23T09:02:54.800Z,7.63
2022-11-23T09:05:21.945Z,10.43
2022-11-23T09:07:49.089Z,13.55
2022-11-23T09:10:19.083Z,12.68
2022-11-23T09:12:47.848Z,13.75
2022-11-23T09:15:15.488Z,12.98
2022-11-23T09:17:43.181Z,11.38
2022-11-23T09:20:10.874Z,10.80
2022-11-23T09:22:38.830Z,10.95
2022-11-23T09:25:07.294Z,11.52
2022-11-23T09:27:34.565Z,13.00
2022-11-23T09:30:01.919Z,10.05
2022-11-23T09:32:29.383Z,10.07
2022-11-23T09:34:56.438Z,9.52
2022-11-23T09:37:23.616Z,9.52
2022-11-23T09:39:50.717Z,8.35
2022-11-23T09:42:37.796Z,8.10
2022-11-23T09:45:11.812Z,12.65
2022-11-23T09:48:02.349Z,10.30
2022-11-23T09:50:41.276Z,8.00
2022-11-23T09:53:16.530Z,8.00
2022-11-23T09:55:47.277Z,7.85
2022-11-23T09:58:17.994Z,7.75
2022-11-23T10:00:48.408Z,8.05
2022-11-23T10:03:17.718Z,7.60
2022-11-23T10:05:58.515Z,9.27
2022-11-23T10:08:32.679Z,9.70
2022-11-23T10:11:31.751Z,10.27
2022-11-23T10:14:09.239Z,14.27
2022-11-23T10:17:06.089Z,10.93
2022-11-23T10:19:37.634Z,12.70
2022-11-23T10:22:14.313Z,11.43
2022-11-23T10:24:47.951Z,10.80
2022-11-23T10:27:18.414Z,11.47
2022-11-23T10:29:45.611Z,11.30
2022-11-23T10:32:39.888Z,11.05
2022-11-23T10:35:17.387Z,10.07
2022-11-23T10:37:44.906Z,9.48
2022-11-23T10:40:29.673Z,11.02
2022-11-23T10:43:01.275Z,13.15
2022-11-23T10:45:30.929Z,9.57
2022-11-23T10:48:00.091Z,9.68
2022-11-23T10:50:30.558Z,8.55
2022-11-23T10:53:01.256Z,8.52
2022-11-23T10:55:31.567Z,10.23
2022-11-23T10:57:59.098Z,9.75
2022-11-23T11:00:30.954Z,9.02
2022-11-23T11:02:59.693Z,9.40
2022-11-23T11:06:06.925Z,8.57
2022-11-23T11:08:20.965Z,7.97
2022-11-23T11:10:50.308Z,7.68
2022-11-23T11:13:46.269Z,8.50
2022-11-23T11:16:16.877Z,10.18
2022-11-23T11:18:44.194Z,7.82
2022-11-23T11:21:32.847Z,6.35
2022-11-23T11:24:02.062Z,5.68
2022-11-23T11:26:31.476Z,7.93
2022-11-23T11:29:02.300Z,12.45
2022-11-23T11:31:35.647Z,6.47
2022-11-23T11:34:11.162Z,10.35
2022-11-23T11:37:00.838Z,14.10
2022-11-23T11:39:35.317Z,10.10
2022-11-23T11:42:06.724Z,7.80
2022-11-23T11:44:39.175Z,9.43
2022-11-23T11:47:22.506Z,9.48
2022-11-23T11:49:52.671Z,7.05
2022-11-23T11:52:24.995Z,5.68
2022-11-23T11:54:56.011Z,3.88
2022-11-23T11:57:41.579Z,4.88
2022-11-23T12:00:15.695Z,5.45
2022-11-23T12:02:57.320Z,6.63
2022-11-23T12:05:32.875Z,5.88
2022-11-23T12:08:14.481Z,6.35
2022-11-23T12:10:48.500Z,5.82
2022-11-23T12:13:19.850Z,3.75
2022-11-23T12:15:54.377Z,8.57
2022-11-23T12:18:27.105Z,4.82
2022-11-23T12:21:01.863Z,5.13
2022-11-23T12:23:36.507Z,4.25
2022-11-23T12:29:03.496Z,5.07
2022-11-23T12:31:50.042Z,4.40
2022-11-23T12:34:38.619Z,4.32
2022-11-23T12:37:25.569Z,5.57
2022-11-23T12:39:57.792Z,4.88
2022-11-23T12:42:35.335Z,5.38
2022-11-23T12:45:04.592Z,6.78
2022-11-23T12:47:36.079Z,6.38
2022-11-23T12:50:04.225Z,7.57
2022-11-23T12:52:47.867Z,9.13
2022-11-23T12:55:45.969Z,9.68
2022-11-23T12:58:13.067Z,10.40
2022-11-23T13:00:47.048Z,8.75
2022-11-23T13:03:45.075Z,6.63
2022-11-23T13:06:31.072Z,6.05
2022-11-23T13:09:13.981Z,5.18
2022-11-23T13:11:53.639Z,5.10
2022-11-23T13:14:28.338Z,7.00
2022-11-23T13:17:02.924Z,5.15
2022-11-23T13:21:58.042Z,7.55
2022-11-23T13:24:25.317Z,6.57
2022-11-23T13:27:13.370Z,6.30
2022-11-23T13:29:58.926Z,8.73
2022-11-23T13:32:43.148Z,6.28
2022-11-23T13:35:17.877Z,6.47
2022-11-23T13:38:01.056Z,5.28
2022-11-23T13:40:30.449Z,6.60
2022-11-23T13:43:04.173Z,4.68
2022-11-23T13:45:36.779Z,5.70
2022-11-23T13:48:19.296Z,4.70
2022-11-23T13:50:51.710Z,4.72
2022-11-23T13:53:29.849Z,4.03
2022-11-23T13:56:15.485Z,5.88
2022-11-23T13:58:52.865Z,12.15
2022-11-23T14:01:59.885Z,4.22
2022-11-23T14:04:29.642Z,8.18
2022-11-23T14:07:15.998Z,9.40
2022-11-23T14:09:50.113Z,8.95
2022-11-23T14:12:21.098Z,10.77
2022-11-23T14:15:08.375Z,7.18
2022-11-23T14:17:58.704Z,9.40
2022-11-23T14:20:49.467Z,6.45
2022-11-23T14:23:56.406Z,6.60
2022-11-23T14:26:23.728Z,6.47
2022-11-23T14:29:28.753Z,7.85
2022-11-23T14:31:56.994Z,5.07
2022-11-23T14:34:45.385Z,4.22
2022-11-23T14:37:36.626Z,9.15
2022-11-23T14:40:14.964Z,6.13
2022-11-23T14:42:50.911Z,5.95
2022-11-23T14:45:21.529Z,5.72
2022-11-23T14:47:48.966Z,6.05
2022-11-23T14:50:22.399Z,6.60
2022-11-23T14:52:50.263Z,5.85
2022-11-23T14:55:23.307Z,5.38
2022-11-23T14:57:54.362Z,5.68
2022-11-23T15:00:30.554Z,6.45
2022-11-23T15:03:27.202Z,7.90
2022-11-23T15:05:58.707Z,6.50
2022-11-23T15:08:30.353Z,5.38
2022-11-23T15:11:09.938Z,6.68
2022-11-23T15:13:55.405Z,8.23
2022-11-23T15:16:22.657Z,6.47
2022-11-23T15:18:50.314Z,8.02
2022-11-23T15:21:26.890Z,8.25
2022-11-23T15:23:57.479Z,8.32
2022-11-23T15:29:38.350Z,7.25
2022-11-23T15:32:30.666Z,6.53
2022-11-23T15:35:04.398Z,5.68
2022-11-23T15:37:33.473Z,5.65
2022-11-23T15:40:00.994Z,11.75
2022-11-23T15:42:28.729Z,10.10
2022-11-23T15:44:56.197Z,7.80
2022-11-23T15:47:29.065Z,8.90
2022-11-23T15:50:02.832Z,7.28
2022-11-23T15:52:35.881Z,8.93
2022-11-23T15:55:09.665Z,8.52
2022-11-23T15:57:39.726Z,7.85
2022-11-23T16:00:07.630Z,8.05
2022-11-23T16:02:41.144Z,5.57
2022-11-23T16:05:11.623Z,7.13
2022-11-23T16:07:59.757Z,8.23
2022-11-23T16:10:29.123Z,8.10
2022-11-23T16:12:59.511Z,8.70
2022-11-23T16:15:42.363Z,10.93
2022-11-23T16:18:18.087Z,10.80
2022-11-23T16:20:47.718Z,8.90
2022-11-23T16:23:21.775Z,10.43
2022-11-23T16:26:00.057Z,9.45
2022-11-23T16:28:30.613Z,13.35
2022-11-23T16:30:58.461Z,13.38
2022-11-23T16:33:26.405Z,16.63
2022-11-23T16:35:53.573Z,14.60
2022-11-23T16:38:20.845Z,13.05
2022-11-23T16:40:48.281Z,13.93
2022-11-23T16:43:17.212Z,17.30
2022-11-23T16:45:46.799Z,20.17
2022-11-23T16:48:30.739Z,19.15
2022-11-23T16:50:57.989Z,35.80
2022-11-23T16:53:30.216Z,41.10
2022-11-23T16:55:58.526Z,43.35
2022-11-23T16:58:30.333Z,27.88
2022-11-23T17:00:57.705Z,19.25
2022-11-23T17:03:25.130Z,23.88
2022-11-23T17:05:52.395Z,25.95
2022-11-23T17:08:23.707Z,25.75
2022-11-23T17:10:51.871Z,24.35
2022-11-23T17:13:29.095Z,24.80
2022-11-23T17:15:56.418Z,20.40
2022-11-23T17:18:23.536Z,18.90
2022-11-23T17:20:50.613Z,18.95
2022-11-23T17:23:18.403Z,21.67
2022-11-23T17:25:45.536Z,16.45
2022-11-23T17:28:17.212Z,16.88
2022-11-23T17:30:44.608Z,29.55
2022-11-23T17:33:12.399Z,27.77
2022-11-23T17:35:40.296Z,23.42
2022-11-23T17:38:14.354Z,23.70
2022-11-23T17:40:42.160Z,23.95
2022-11-23T17:43:14.283Z,29.75
2022-11-23T17:45:42.855Z,46.95
2022-11-23T17:48:12.976Z,123.00
2022-11-23T17:50:40.118Z,105.22
2022-11-23T17:53:09.244Z,97.55
2022-11-23T17:55:36.533Z,80.70
2022-11-23T17:58:04.103Z,62.38
2022-11-23T18:00:32.390Z,48.65
2022-11-23T18:02:59.970Z,39.60
2022-11-23T18:05:27.602Z,37.20
2022-11-23T18:07:54.810Z,33.70
2022-11-23T18:10:22.674Z,31.00
2022-11-23T18:12:49.713Z,23.35
2022-11-23T18:15:16.903Z,23.15
2022-11-23T18:17:44.329Z,25.40
2022-11-23T18:20:12.020Z,23.35
2022-11-23T18:22:39.454Z,21.33
2022-11-23T18:25:07.192Z,20.77
2022-11-23T18:27:34.582Z,20.05
2022-11-23T18:30:02.089Z,17.85
2022-11-23T18:32:29.404Z,18.52
2022-11-23T18:34:56.701Z,16.85
2022-11-23T18:37:23.919Z,18.52
2022-11-23T18:39:51.100Z,18.38
2022-11-23T18:42:18.605Z,22.58
2022-11-23T18:44:45.796Z,32.42
2022-11-23T18:47:12.983Z,64.60
2022-11-23T18:49:40.034Z,42.90
2022-11-23T18:52:09.196Z,36.40
2022-11-23T18:54:36.224Z,27.02
2022-11-23T18:57:03.453Z,26.40
2022-11-23T19:02:17.660Z,31.23
2022-11-23T19:04:50.160Z,49.75
2022-11-23T19:07:23.534Z,43.00
2022-11-23T19:09:53.896Z,41.25
2022-11-23T19:12:21.431Z,42.47
2022-11-23T19:14:49.982Z,35.20
2022-11-23T19:17:17.759Z,36.50
2022-11-23T19:19:45.370Z,32.78
2022-11-23T19:22:13.105Z,30.42
2022-11-23T19:24:40.834Z,31.55
2022-11-23T19:27:08.266Z,27.85
2022-11-23T19:29:36.379Z,22.85
2022-11-23T19:32:04.709Z,17.63
2022-11-23T19:34:32.422Z,18.73
2022-11-23T19:37:00.273Z,21.17
2022-11-23T19:39:27.688Z,22.98
2022-11-23T19:41:55.324Z,16.55
2022-11-23T19:44:22.958Z,18.17
2022-11-23T19:46:50.740Z,20.67
2022-11-23T19:49:18.765Z,17.95
2022-11-23T19:51:47.623Z,18.05
2022-11-23T19:54:14.874Z,16.02
2022-11-23T19:56:42.186Z,17.60
2022-11-23T19:59:09.691Z,16.33
2022-11-23T20:01:37.100Z,15.55
2022-11-23T20:04:09.328Z,15.50
2022-11-23T20:06:38.434Z,16.85
2022-11-23T20:09:08.156Z,16.75
2022-11-23T20:11:36.329Z,17.98
2022-11-23T20:14:03.992Z,18.35
2022-11-23T20:16:33.078Z,23.00
2022-11-23T20:19:02.940Z,25.25
2022-11-23T20:21:32.281Z,23.35
2022-11-23T20:24:05.540Z,24.48
2022-11-23T20:26:36.176Z,22.00
2022-11-23T20:29:05.249Z,21.00
2022-11-23T20:31:33.745Z,25.10
2022-11-23T20:34:03.298Z,30.02
2022-11-23T20:36:35.952Z,23.75
2022-11-23T20:39:05.723Z,23.08
2022-11-23T20:41:35.316Z,24.77
2022-11-23T20:44:06.616Z,23.23
2022-11-23T20:49:21.670Z,23.42
2022-11-23T20:51:49.068Z,22.83
2022-11-23T20:54:16.132Z,20.90
2022-11-23T20:56:43.680Z,20.30
2022-11-23T20:59:12.458Z,22.92
2022-11-23T21:01:40.970Z,25.23
2022-11-23T21:04:09.237Z,23.58
2022-11-23T21:06:39.543Z,22.85
2022-11-23T21:09:09.129Z,23.08
2022-11-23T21:11:56.837Z,25.73
2022-11-23T21:14:28.171Z,29.27
2022-11-23T21:16:58.619Z,25.25
2022-11-23T21:19:27.581Z,24.50
2022-11-23T21:21:55.313Z,26.13
2022-11-23T21:24:22.783Z,22.05
2022-11-23T21:26:50.218Z,21.17
2022-11-23T21:29:18.702Z,18.67
2022-11-23T21:31:47.883Z,17.80
2022-11-23T21:34:31.125Z,18.95
2022-11-23T21:36:59.250Z,18.75
2022-11-23T21:39:26.352Z,21.88
2022-11-23T21:41:54.355Z,19.77
2022-11-23T21:44:23.122Z,20.38
2022-11-23T21:46:51.234Z,18.58
2022-11-23T21:49:18.383Z,20.77
2022-11-23T21:51:45.990Z,18.52
2022-11-23T21:54:15.987Z,20.17
2022-11-23T21:56:45.912Z,18.08
2022-11-23T21:59:13.792Z,17.98
2022-11-23T22:01:41.981Z,16.73
2022-11-23T22:04:11.959Z,17.85
2022-11-23T22:06:39.920Z,18.92
2022-11-23T22:09:09.554Z,19.48
2022-11-23T22:11:39.538Z,18.98
2022-11-23T22:14:09.198Z,21.90
2022-11-23T22:16:39.296Z,16.25
2022-11-23T22:19:07.200Z,18.30
2022-11-23T22:21:36.439Z,16.45
2022-11-23T22:24:05.567Z,55.45
2022-11-23T22:26:33.098Z,63.10
2022-11-23T22:29:02.779Z,51.95
2022-11-23T22:31:33.272Z,26.05
2022-11-23T22:34:02.083Z,50.90
2022-11-23T22:36:29.674Z,41.60
2022-11-23T22:39:01.564Z,31.30
2022-11-23T22:41:30.791Z,30.15
2022-11-23T22:43:57.835Z,24.70
2022-11-23T22:46:25.617Z,25.70
2022-11-23T22:48:53.632Z,31.20
2022-11-23T22:51:22.727Z,27.50
2022-11-23T22:53:58.915Z,23.50
2022-11-23T22:56:26.826Z,24.85
2022-11-23T22:58:54.215Z,26.17
2022-11-23T23:01:24.223Z,22.38
2022-11-23T23:03:55.567Z,20.60
2022-11-23T23:06:26.150Z,18.02
2022-11-23T23:08:56.563Z,18.33
2022-11-23T23:11:24.805Z,22.88
2022-11-23T23:13:52.640Z,21.67
2022-11-23T23:16:20.476Z,25.33
2022-11-23T23:18:47.589Z,21.10
2022-11-23T23:21:17.651Z,22.40
2022-11-23T23:23:46.987Z,21.08
2022-11-23T23:26:16.159Z,19.73
2022-11-23T23:28:43.455Z,18.63
2022-11-23T23:31:13.988Z,19.50
2022-11-23T23:33:41.106Z,17.67
2022-11-23T23:36:13.066Z,23.27
2022-11-23T23:38:40.842Z,29.63
2022-11-23T23:41:10.016Z,23.98
2022-11-23T23:43:37.457Z,24.13
2022-11-23T23:46:06.948Z,23.60
2022-11-23T23:48:36.399Z,30.75
2022-11-23T23:51:07.033Z,21.48
2022-11-23T23:53:34.940Z,19.73
2022-11-23T23:56:05.355Z,21.77
2022-11-23T23:58:32.587Z,17.45
